Time;durP1;ratioP1;P1;durP2;ratioP2;P2;SDS_P1;SDS_P2;PMS_P1;PMS_P2;Temp;Humidity;BMP_temperature;BMP_pressure;BME280_temperature;BME280_humidity;BME280_pressure;Samples;Min_cycle;Max_cycle;Signal;HPM_P1;HPM_P2
2022/08/21 00:00:07;;;;;;;14.30;11.70;;;16.20;99.90;;;;;;5004508;28;20184;-66
2022/08/21 00:02:33;;;;;;;14.20;10.10;;;16.10;99.90;;;;;;5011609;28;20180;-66
2022/08/21 00:04:59;;;;;;;11.73;10.37;;;16.10;99.90;;;;;;5011058;28;20334;-66
2022/08/21 00:07:24;;;;;;;11.87;10.67;;;16.00;99.90;;;;;;5011544;28;20187;-66
2022/08/21 00:09:50;;;;;;;10.37;9.57;;;16.00;99.90;;;;;;5011226;28;20544;-65
2022/08/21 00:12:16;;;;;;;11.20;10.20;;;15.90;99.90;;;;;;5011747;28;20188;-67
2022/08/21 00:14:41;;;;;;;11.10;9.73;;;15.90;99.90;;;;;;5010777;28;20279;-66
2022/08/21 00:17:07;;;;;;;13.40;12.17;;;15.90;99.90;;;;;;5011588;28;20253;-67
2022/08/21 00:19:33;;;;;;;11.43;10.33;;;15.90;99.90;;;;;;5010941;28;20255;-67
2022/08/21 00:21:59;;;;;;;11.40;10.17;;;15.90;99.90;;;;;;5011568;28;20188;-66
2022/08/21 00:24:26;;;;;;;12.70;10.83;;;15.90;99.90;;;;;;5010678;28;20242;-66
2022/08/21 00:26:52;;;;;;;10.10;9.17;;;15.80;99.90;;;;;;5011068;28;20180;-66
2022/08/21 00:29:18;;;;;;;10.93;9.70;;;15.80;99.90;;;;;;5011339;28;20271;-64
2022/08/21 00:31:44;;;;;;;11.33;10.23;;;15.80;99.90;;;;;;5011071;28;20191;-66
2022/08/21 00:34:11;;;;;;;12.50;10.53;;;15.80;99.90;;;;;;5012955;28;20556;-66
2022/08/21 00:36:37;;;;;;;10.80;9.70;;;15.90;99.90;;;;;;5016874;28;20214;-66
2022/08/21 00:39:05;;;;;;;10.53;9.50;;;15.90;99.90;;;;;;5016218;28;20251;-64
2022/08/21 00:41:31;;;;;;;11.13;10.10;;;15.90;99.90;;;;;;5015648;28;20702;-65
2022/08/21 00:43:56;;;;;;;19.20;9.77;;;15.80;99.90;;;;;;5014273;28;20298;-66
2022/08/21 00:46:22;;;;;;;12.37;9.47;;;15.80;99.90;;;;;;5014749;28;20180;-66
2022/08/21 00:48:47;;;;;;;12.00;9.77;;;15.80;99.90;;;;;;5014362;28;20184;-66
2022/08/21 00:51:22;;;;;;;9.87;8.53;;;15.80;99.90;;;;;;5014608;28;20180;-66
2022/08/21 00:53:51;;;;;;;11.73;9.17;;;15.70;99.90;;;;;;5014112;28;20206;-67
2022/08/21 00:56:18;;;;;;;10.90;9.03;;;15.60;99.90;;;;;;5014591;28;20204;-66
2022/08/21 00:58:45;;;;;;;10.17;8.60;;;15.50;99.90;;;;;;5013154;28;20180;-66
2022/08/21 01:01:11;;;;;;;14.33;9.73;;;15.40;99.90;;;;;;5014874;28;20206;-66
2022/08/21 01:03:37;;;;;;;12.83;9.33;;;15.30;99.90;;;;;;5015012;28;20200;-66
2022/08/21 01:06:04;;;;;;;10.60;9.60;;;15.30;99.90;;;;;;5015955;28;20184;-66
2022/08/21 01:08:30;;;;;;;10.90;9.77;;;15.30;99.90;;;;;;5016037;28;20175;-66
2022/08/21 01:10:58;;;;;;;13.20;10.33;;;15.20;99.90;;;;;;5015050;28;20180;-66
2022/08/21 01:13:24;;;;;;;10.07;9.10;;;15.20;99.90;;;;;;5014206;28;20633;-65
2022/08/21 01:15:52;;;;;;;14.10;10.30;;;15.20;99.90;;;;;;5014428;28;20184;-65
2022/08/21 01:18:20;;;;;;;11.33;10.30;;;15.10;99.90;;;;;;5015114;28;20684;-65
2022/08/21 01:21:03;;;;;;;11.93;10.80;;;15.20;99.90;;;;;;5014724;28;20184;-65
2022/08/21 01:23:29;;;;;;;11.23;10.10;;;15.10;99.90;;;;;;5014596;28;20195;-66
2022/08/21 01:25:55;;;;;;;14.03;9.83;;;15.20;99.90;;;;;;5014361;28;20267;-66
2022/08/21 01:28:22;;;;;;;15.47;10.40;;;15.20;99.90;;;;;;5014941;28;20176;-65
2022/08/21 01:30:50;;;;;;;13.97;10.10;;;15.20;99.90;;;;;;5014664;28;20207;-66
2022/08/21 01:33:19;;;;;;;10.40;9.20;;;15.20;99.90;;;;;;5015351;28;20189;-66
2022/08/21 01:35:45;;;;;;;12.50;9.87;;;15.20;99.90;;;;;;5015307;28;20634;-66
2022/08/21 01:38:10;;;;;;;11.43;9.50;;;15.20;99.90;;;;;;5014898;28;20204;-66
2022/08/21 01:40:36;;;;;;;10.57;9.37;;;15.20;99.90;;;;;;5014048;28;20176;-65
2022/08/21 01:43:02;;;;;;;15.50;10.60;;;15.20;99.90;;;;;;5014355;28;20179;-66
2022/08/21 01:45:28;;;;;;;10.73;9.83;;;15.10;99.90;;;;;;5012298;28;20262;-66
2022/08/21 01:47:54;;;;;;;11.77;9.30;;;15.10;99.90;;;;;;5014440;28;20191;-66
2022/08/21 01:50:20;;;;;;;11.03;9.90;;;15.10;99.90;;;;;;5013952;28;20267;-66
2022/08/21 01:52:46;;;;;;;19.43;10.13;;;15.10;99.90;;;;;;5014470;28;20669;-65
2022/08/21 01:55:13;;;;;;;10.47;9.47;;;15.00;99.90;;;;;;5013554;28;20204;-66
2022/08/21 01:57:38;;;;;;;11.57;9.57;;;15.00;99.90;;;;;;5013914;28;20282;-66
2022/08/21 02:00:08;;;;;;;10.40;9.07;;;15.00;99.90;;;;;;5013783;28;20259;-66
2022/08/21 02:02:34;;;;;;;11.00;9.43;;;15.00;99.90;;;;;;5014168;28;20180;-66
2022/08/21 02:05:00;;;;;;;12.07;9.70;;;15.00;99.90;;;;;;5013649;28;20199;-66
2022/08/21 02:07:25;;;;;;;12.73;9.83;;;14.90;99.90;;;;;;5013754;28;20183;-65
2022/08/21 02:09:51;;;;;;;11.07;9.40;;;14.90;99.90;;;;;;5012454;28;20184;-65
2022/08/21 02:12:17;;;;;;;12.40;9.50;;;14.80;99.90;;;;;;5014008;28;20199;-66
2022/08/21 02:14:42;;;;;;;10.50;9.50;;;14.80;99.90;;;;;;5013091;28;20348;-65
2022/08/21 02:17:08;;;;;;;10.90;9.77;;;14.80;99.90;;;;;;5013978;28;20625;-66
2022/08/21 02:19:33;;;;;;;12.63;9.90;;;14.70;99.90;;;;;;5013290;28;20195;-65
2022/08/21 02:21:59;;;;;;;12.27;10.37;;;14.60;99.90;;;;;;5013770;28;20175;-66
2022/08/21 02:24:25;;;;;;;11.27;10.03;;;14.60;99.90;;;;;;5013230;28;20242;-66
2022/08/21 02:26:50;;;;;;;10.97;9.87;;;14.60;99.90;;;;;;5014002;28;20176;-66
2022/08/21 02:29:16;;;;;;;16.57;11.17;;;14.50;99.90;;;;;;5013182;28;20200;-66
2022/08/21 02:31:41;;;;;;;11.60;10.53;;;14.60;99.90;;;;;;5013902;28;20275;-65
2022/08/21 02:34:08;;;;;;;14.43;10.30;;;14.50;99.90;;;;;;5012889;28;20286;-64
2022/08/21 02:36:34;;;;;;;10.87;9.97;;;14.50;99.90;;;;;;5012695;28;20275;-65
2022/08/21 02:39:00;;;;;;;11.00;10.03;;;14.50;99.90;;;;;;5012565;28;20331;-64
2022/08/21 02:41:25;;;;;;;12.87;9.50;;;14.50;99.90;;;;;;5012476;28;20172;-64
2022/08/21 02:43:51;;;;;;;11.13;10.13;;;14.50;99.90;;;;;;5011761;28;20219;-65
2022/08/21 02:46:19;;;;;;;11.73;10.20;;;14.40;99.90;;;;;;5012580;28;20176;-65
2022/08/21 02:48:46;;;;;;;11.03;10.03;;;14.30;99.90;;;;;;5012194;28;20238;-65
2022/08/21 02:51:17;;;;;;;11.70;10.60;;;14.30;99.90;;;;;;5012477;28;20180;-64
2022/08/21 02:53:45;;;;;;;11.57;10.37;;;14.30;99.90;;;;;;5011826;28;20224;-65
2022/08/21 02:56:14;;;;;;;12.27;10.93;;;14.30;99.90;;;;;;5011673;28;20238;-65
2022/08/21 02:58:45;;;;;;;13.23;12.00;;;14.30;99.90;;;;;;5011909;28;20188;-64
2022/08/21 03:01:12;;;;;;;16.13;12.53;;;14.20;99.90;;;;;;5012199;28;20620;-66
2022/08/21 03:03:40;;;;;;;13.13;11.93;;;14.30;99.90;;;;;;5012055;28;20202;-66
2022/08/21 03:06:08;;;;;;;14.03;12.67;;;14.20;99.90;;;;;;5012034;28;20634;-66
2022/08/21 03:08:34;;;;;;;14.47;12.93;;;14.30;99.90;;;;;;5012165;28;20175;-66
2022/08/21 03:11:01;;;;;;;18.10;12.97;;;14.30;99.90;;;;;;5011841;28;20637;-67
2022/08/21 03:13:27;;;;;;;13.63;11.83;;;14.30;99.90;;;;;;5011638;28;20193;-65
2022/08/21 03:15:53;;;;;;;13.50;12.07;;;14.20;99.90;;;;;;5011796;28;20638;-66
2022/08/21 03:18:19;;;;;;;12.10;11.00;;;14.30;99.90;;;;;;5012168;28;20618;-66
2022/08/21 03:20:46;;;;;;;11.77;10.70;;;14.30;99.90;;;;;;5011861;28;20210;-65
2022/08/21 03:23:11;;;;;;;12.23;11.03;;;14.20;99.90;;;;;;5011946;28;20172;-62
2022/08/21 03:25:37;;;;;;;13.53;11.43;;;14.20;99.90;;;;;;5011218;28;20182;-65
2022/08/21 03:28:05;;;;;;;11.80;10.80;;;14.10;99.90;;;;;;5010739;28;20175;-66
2022/08/21 03:30:31;;;;;;;16.07;12.03;;;14.00;99.90;;;;;;5011542;28;20195;-66
2022/08/21 03:32:58;;;;;;;13.00;11.80;;;13.90;99.90;;;;;;5012133;28;20184;-66
2022/08/21 03:35:25;;;;;;;13.30;11.73;;;13.90;99.90;;;;;;5011002;28;20199;-64
2022/08/21 03:37:51;;;;;;;12.17;10.90;;;13.90;99.90;;;;;;5012026;28;20574;-66
2022/08/21 03:40:18;;;;;;;12.80;11.47;;;13.90;99.90;;;;;;5011435;28;20172;-66
2022/08/21 03:42:46;;;;;;;12.67;11.57;;;13.80;99.90;;;;;;5011791;28;20179;-66
2022/08/21 03:45:13;;;;;;;12.60;11.40;;;13.80;99.90;;;;;;5010933;28;20210;-65
2022/08/21 03:47:50;;;;;;;13.80;11.13;;;13.70;99.90;;;;;;5011696;28;20554;-67
2022/08/21 03:50:17;;;;;;;11.27;10.27;;;13.70;99.90;;;;;;5011421;28;20176;-66
2022/08/21 03:52:43;;;;;;;15.80;11.90;;;13.70;99.90;;;;;;4992118;28;20634;-65
2022/08/21 03:55:08;;;;;;;17.27;12.57;;;13.70;99.90;;;;;;4991880;28;20279;-65
2022/08/21 03:57:34;;;;;;;14.37;11.87;;;13.60;99.90;;;;;;5010209;28;20258;-65
2022/08/21 03:59:59;;;;;;;14.80;11.83;;;13.60;99.90;;;;;;5011834;28;20666;-67
2022/08/21 04:02:25;;;;;;;14.67;11.57;;;13.60;99.90;;;;;;5011284;28;20225;-66
2022/08/21 04:04:51;;;;;;;12.03;10.80;;;13.60;99.90;;;;;;5011078;28;20271;-66
2022/08/21 04:07:17;;;;;;;13.97;12.57;;;13.50;99.90;;;;;;5011757;28;20172;-64
2022/08/21 04:09:43;;;;;;;13.90;11.67;;;13.50;99.90;;;;;;5015128;28;20208;-66
2022/08/21 04:12:08;;;;;;;13.83;12.43;;;13.40;99.90;;;;;;5015514;28;20202;-65
2022/08/21 04:14:34;;;;;;;14.53;13.27;;;13.50;99.90;;;;;;5014654;28;20254;-66
2022/08/21 04:17:00;;;;;;;23.00;14.53;;;13.50;99.90;;;;;;5015345;28;20242;-67
2022/08/21 04:19:26;;;;;;;14.17;12.67;;;13.50;99.90;;;;;;5014773;28;20169;-64
2022/08/21 04:21:51;;;;;;;15.37;13.83;;;13.50;99.90;;;;;;5015373;28;20547;-66
2022/08/21 04:24:17;;;;;;;18.37;12.87;;;13.60;99.90;;;;;;5014357;28;20192;-66
2022/08/21 04:26:43;;;;;;;14.07;12.57;;;13.50;99.90;;;;;;5015225;28;20176;-66
2022/08/21 04:29:08;;;;;;;25.10;15.07;;;13.50;99.90;;;;;;5014860;28;20184;-66
2022/08/21 04:31:36;;;;;;;16.70;13.20;;;13.50;99.90;;;;;;5014663;28;20194;-66
2022/08/21 04:34:06;;;;;;;19.53;14.03;;;13.50;99.90;;;;;;5014989;28;20208;-66
2022/08/21 04:36:32;;;;;;;17.97;13.67;;;13.50;99.90;;;;;;5014614;28;20283;-66
2022/08/21 04:38:58;;;;;;;18.10;14.07;;;13.50;99.90;;;;;;5014913;28;20177;-66
2022/08/21 04:41:24;;;;;;;16.00;14.33;;;13.50;99.90;;;;;;5014834;28;20175;-66
2022/08/21 04:43:50;;;;;;;15.90;13.63;;;13.50;99.90;;;;;;5014731;28;20543;-65
2022/08/21 04:46:15;;;;;;;19.50;14.60;;;13.60;99.90;;;;;;5015185;28;20658;-65
2022/08/21 04:48:41;;;;;;;15.10;13.43;;;13.60;99.90;;;;;;5015337;28;20208;-66
2022/08/21 04:51:14;;;;;;;20.63;13.40;;;13.60;99.90;;;;;;5014778;28;20619;-66
2022/08/21 04:54:10;;;;;;;15.67;12.67;;;13.60;99.90;;;;;;5014844;28;20184;-66
2022/08/21 04:56:39;;;;;;;15.17;13.57;;;13.70;99.90;;;;;;5014703;28;20210;-65
2022/08/21 04:59:16;;;;;;;17.43;14.40;;;13.80;99.90;;;;;;5015658;28;20599;-65
2022/08/21 05:01:42;;;;;;;15.97;12.60;;;13.80;99.90;;;;;;5015208;28;20172;-65
2022/08/21 05:04:12;;;;;;;16.20;13.03;;;13.80;99.90;;;;;;5012892;28;20193;-65
2022/08/21 05:06:41;;;;;;;17.07;12.40;;;13.90;99.90;;;;;;5014883;28;20176;-67
2022/08/21 05:09:09;;;;;;;14.27;12.67;;;14.00;99.90;;;;;;5014589;28;20180;-65
2022/08/21 05:11:35;;;;;;;15.73;12.27;;;14.10;99.90;;;;;;5013307;28;20176;-65
2022/08/21 05:14:01;;;;;;;13.53;12.33;;;14.10;99.90;;;;;;5014648;28;20196;-66
2022/08/21 05:16:27;;;;;;;15.17;12.60;;;14.10;99.90;;;;;;5014141;28;20279;-64
2022/08/21 05:18:53;;;;;;;16.50;12.17;;;14.20;99.90;;;;;;5013751;28;20649;-65
2022/08/21 05:21:18;;;;;;;13.60;12.17;;;14.20;99.90;;;;;;5013667;28;20692;-64
2022/08/21 05:23:44;;;;;;;13.10;11.33;;;14.20;99.90;;;;;;5014824;28;20188;-66
2022/08/21 05:26:09;;;;;;;18.30;12.60;;;14.20;99.90;;;;;;5014380;28;20215;-66
2022/08/21 05:28:35;;;;;;;13.47;11.60;;;14.30;99.90;;;;;;5015687;28;20537;-66
2022/08/21 05:31:01;;;;;;;14.23;12.70;;;14.30;99.90;;;;;;5014731;28;20586;-65
2022/08/21 05:33:26;;;;;;;15.30;13.13;;;14.30;99.90;;;;;;5013940;28;20193;-66
2022/08/21 05:35:55;;;;;;;16.27;13.03;;;14.40;99.90;;;;;;5013948;28;20208;-66
2022/08/21 05:38:21;;;;;;;14.33;12.97;;;14.40;99.90;;;;;;5014184;28;20210;-65
2022/08/21 05:40:47;;;;;;;15.43;13.37;;;14.40;99.90;;;;;;5013812;28;20211;-65
2022/08/21 05:43:13;;;;;;;17.90;13.53;;;14.50;99.90;;;;;;5014132;28;20258;-65
2022/08/21 05:45:39;;;;;;;14.50;13.00;;;14.60;99.90;;;;;;5013476;28;20461;-66
2022/08/21 05:48:18;;;;;;;16.13;12.97;;;14.70;99.90;;;;;;5014196;28;20179;-66
2022/08/21 05:50:44;;;;;;;19.53;13.00;;;14.70;99.90;;;;;;5013881;28;20219;-65
2022/08/21 05:53:11;;;;;;;13.77;12.33;;;14.80;99.90;;;;;;5013947;28;20184;-66
2022/08/21 05:55:38;;;;;;;15.37;13.03;;;14.90;99.90;;;;;;5013066;28;20654;-66
2022/08/21 05:58:03;;;;;;;17.20;12.90;;;15.00;99.90;;;;;;5013372;28;20199;-65
2022/08/21 06:00:29;;;;;;;13.33;12.00;;;15.20;99.90;;;;;;5013537;28;20259;-66
2022/08/21 06:02:55;;;;;;;16.03;12.87;;;15.30;99.90;;;;;;5013661;28;20187;-66
2022/08/21 06:05:21;;;;;;;15.57;11.67;;;15.40;99.90;;;;;;5013323;28;20320;-66
2022/08/21 06:07:46;;;;;;;14.03;11.47;;;15.60;99.90;;;;;;5013302;28;20267;-66
2022/08/21 06:10:12;;;;;;;12.13;10.93;;;15.70;99.90;;;;;;5013505;28;20176;-66
2022/08/21 06:12:38;;;;;;;13.03;11.60;;;16.00;99.90;;;;;;5013293;28;20180;-65
2022/08/21 06:15:04;;;;;;;11.67;10.33;;;16.20;99.90;;;;;;5021096;28;20258;-66
2022/08/21 06:17:30;;;;;;;14.10;9.77;;;16.50;99.90;;;;;;5019223;28;20212;-67
2022/08/21 06:19:56;;;;;;;10.33;9.20;;;17.00;99.90;;;;;;5011854;28;20183;-67
2022/08/21 06:22:21;;;;;;;11.80;8.67;;;17.50;99.90;;;;;;5012518;28;20203;-66
2022/08/21 06:24:47;;;;;;;7.97;6.73;;;18.10;99.90;;;;;;5012840;28;20203;-67
2022/08/21 06:27:13;;;;;;;8.63;7.23;;;18.60;99.90;;;;;;5013724;28;20179;-66
2022/08/21 06:29:38;;;;;;;6.30;5.70;;;19.00;99.90;;;;;;5012989;28;20188;-66
2022/08/21 06:32:08;;;;;;;8.93;6.40;;;19.50;99.90;;;;;;5013072;28;20176;-66
2022/08/21 06:34:40;;;;;;;6.50;5.85;;;19.90;99.90;;;;;;5012463;28;20576;-66
2022/08/21 06:37:06;;;;;;;13.65;5.80;;;20.40;99.90;;;;;;5012915;28;20282;-67
2022/08/21 06:39:33;;;;;;;9.02;6.10;;;20.90;99.90;;;;;;5012430;28;20203;-67
2022/08/21 06:41:59;;;;;;;12.18;5.47;;;21.30;99.90;;;;;;5013060;28;20692;-65
2022/08/21 06:44:25;;;;;;;6.95;4.75;;;21.70;99.90;;;;;;5012246;28;20681;-66
2022/08/21 06:46:51;;;;;;;6.25;5.18;;;22.20;99.90;;;;;;5012799;28;20260;-67
2022/08/21 06:49:17;;;;;;;6.80;5.28;;;22.60;99.90;;;;;;5012785;28;20180;-65
2022/08/21 06:51:42;;;;;;;5.07;4.05;;;22.90;99.90;;;;;;5012357;28;20266;-65
2022/08/21 06:54:08;;;;;;;6.75;4.32;;;23.00;99.90;;;;;;5012202;28;20199;-67
2022/08/21 06:56:36;;;;;;;13.85;4.50;;;23.00;99.90;;;;;;5012402;28;20705;-66
2022/08/21 06:59:02;;;;;;;6.28;4.25;;;23.20;99.90;;;;;;5012287;28;20180;-66
2022/08/21 07:01:28;;;;;;;5.82;4.57;;;23.20;99.90;;;;;;5012159;28;20776;-65
2022/08/21 07:03:54;;;;;;;5.40;4.68;;;23.20;99.90;;;;;;5011720;28;20278;-65
2022/08/21 07:06:19;;;;;;;7.93;6.22;;;23.40;99.90;;;;;;5011145;28;20672;-66
2022/08/21 07:08:45;;;;;;;6.82;5.50;;;23.70;99.90;;;;;;5011922;28;20642;-65
2022/08/21 07:11:22;;;;;;;6.63;6.07;;;24.10;99.90;;;;;;5012188;28;20181;-66
2022/08/21 07:13:48;;;;;;;6.30;4.90;;;24.50;99.90;;;;;;5013801;28;20386;-66
2022/08/21 07:16:14;;;;;;;9.05;4.88;;;24.90;99.90;;;;;;5027145;28;20222;-65
2022/08/21 07:18:40;;;;;;;4.75;4.10;;;25.00;99.90;;;;;;5012016;28;20168;-66
2022/08/21 07:21:07;;;;;;;5.20;4.57;;;24.80;99.90;;;;;;5012017;28;20559;-66
2022/08/21 07:23:36;;;;;;;7.68;5.20;;;24.10;99.90;;;;;;5011231;28;20204;-65
2022/08/21 07:26:02;;;;;;;8.68;5.40;;;23.90;99.90;;;;;;5012073;28;20523;-66
2022/08/21 07:28:29;;;;;;;8.07;5.28;;;23.90;99.90;;;;;;5011888;28;20538;-66
2022/08/21 07:30:57;;;;;;;5.72;5.18;;;23.80;99.90;;;;;;5011904;28;20627;-66
2022/08/21 07:33:25;;;;;;;4.13;3.83;;;23.90;99.90;;;;;;5011140;28;20689;-67
2022/08/21 07:35:50;;;;;;;5.55;5.05;;;24.00;99.90;;;;;;5011749;28;20181;-65
2022/08/21 07:38:16;;;;;;;6.03;3.88;;;23.90;99.90;;;;;;5011311;28;20192;-66
2022/08/21 07:40:42;;;;;;;6.38;4.13;;;23.60;99.90;;;;;;5011702;28;20176;-65
2022/08/21 07:43:08;;;;;;;6.43;4.45;;;23.30;99.90;;;;;;5014591;28;20179;-65
2022/08/21 07:45:33;;;;;;;7.95;3.80;;;23.20;99.90;;;;;;5017721;28;20687;-66
2022/08/21 07:47:59;;;;;;;5.45;3.70;;;23.00;99.90;;;;;;5018046;28;20541;-65
2022/08/21 07:50:25;;;;;;;5.10;4.60;;;23.10;99.90;;;;;;5018108;28;20251;-65
2022/08/21 07:52:52;;;;;;;5.38;4.40;;;23.20;99.90;;;;;;5018019;28;20184;-65
2022/08/21 07:55:23;;;;;;;6.22;5.28;;;23.40;99.90;;;;;;5017696;28;20207;-66
2022/08/21 07:57:48;;;;;;;5.70;4.05;;;24.00;99.90;;;;;;5018063;28;20231;-66
2022/08/21 08:00:17;;;;;;;5.32;4.28;;;24.60;99.90;;;;;;5017830;28;20218;-64
2022/08/21 08:02:49;;;;;;;5.82;3.88;;;25.10;99.90;;;;;;5017875;28;20180;-66
2022/08/21 08:05:15;;;;;;;5.95;4.38;;;25.30;99.90;;;;;;5027113;28;20218;-65
2022/08/21 08:07:41;;;;;;;7.78;4.00;;;25.50;99.90;;;;;;5037532;28;20661;-67
2022/08/21 08:10:11;;;;;;;3.97;3.38;;;25.70;99.90;;;;;;5019787;28;20180;-65
2022/08/21 08:12:39;;;;;;;6.85;3.80;;;25.80;99.90;;;;;;5014209;28;20430;-66
2022/08/21 08:15:08;;;;;;;4.72;3.90;;;25.90;99.90;;;;;;4999498;28;20211;-64
2022/08/21 08:17:34;;;;;;;5.13;3.78;;;26.10;99.90;;;;;;5017194;28;20214;-65
2022/08/21 08:20:00;;;;;;;5.45;3.30;;;26.10;99.90;;;;;;5017609;28;20168;-65
2022/08/21 08:22:27;;;;;;;7.63;3.67;;;25.90;99.90;;;;;;5017826;28;20173;-65
2022/08/21 08:24:54;;;;;;;4.07;3.58;;;26.20;99.90;;;;;;5017515;28;20599;-64
2022/08/21 08:27:20;;;;;;;3.63;3.33;;;26.50;99.90;;;;;;5017864;28;20322;-66
2022/08/21 08:29:47;;;;;;;3.67;2.88;;;26.90;99.90;;;;;;5017668;28;20576;-65
2022/08/21 08:32:12;;;;;;;3.58;3.28;;;27.20;99.90;;;;;;5017860;28;20200;-65
2022/08/21 08:34:39;;;;;;;3.78;2.90;;;27.20;99.90;;;;;;5017433;28;20301;-66
2022/08/21 08:37:07;;;;;;;4.30;3.47;;;27.20;99.90;;;;;;5017735;28;20357;-65
2022/08/21 08:39:33;;;;;;;3.95;3.55;;;27.70;99.90;;;;;;5017661;28;20596;-65
2022/08/21 08:42:05;;;;;;;4.75;4.20;;;27.90;99.90;;;;;;5017790;28;20172;-65
2022/08/21 08:44:31;;;;;;;6.80;3.30;;;28.40;99.90;;;;;;5017202;28;20215;-66
2022/08/21 08:46:59;;;;;;;6.05;4.30;;;28.70;99.90;;;;;;5015998;28;20267;-65
2022/08/21 08:49:34;;;;;;;4.20;3.67;;;28.90;99.90;;;;;;5017126;28;20183;-66
2022/08/21 08:52:17;;;;;;;3.85;3.05;;;29.20;99.90;;;;;;5017271;28;20282;-65
2022/08/21 08:54:49;;;;;;;4.35;3.88;;;28.90;99.90;;;;;;5014304;28;20558;-65
2022/08/21 08:57:19;;;;;;;4.55;3.83;;;28.70;99.90;;;;;;5014374;28;20204;-66
2022/08/21 08:59:49;;;;;;;5.07;3.67;;;28.80;99.90;;;;;;5014007;28;20200;-66
2022/08/21 09:02:16;;;;;;;3.05;2.72;;;29.20;99.90;;;;;;5014115;28;20184;-66
2022/08/21 09:04:44;;;;;;;4.32;2.97;;;29.40;99.90;;;;;;5013679;28;20200;-66
2022/08/21 09:07:43;;;;;;;4.00;3.10;;;29.30;99.90;;;;;;5013798;28;20271;-65
2022/08/21 09:10:46;;;;;;;4.53;2.95;;;29.10;99.90;;;;;;5014077;28;20172;-66
2022/08/21 09:13:23;;;;;;;3.47;3.17;;;29.30;99.90;;;;;;5013918;28;20255;-66
2022/08/21 09:16:19;;;;;;;4.95;2.92;;;29.50;99.90;;;;;;5013741;28;20206;-66
2022/08/21 09:19:07;;;;;;;3.03;2.72;;;29.30;99.90;;;;;;4993493;28;20223;-66
2022/08/21 09:21:41;;;;;;;4.85;3.47;;;28.80;99.90;;;;;;4999679;28;20172;-65
2022/08/21 09:24:27;;;;;;;5.55;3.28;;;28.60;99.90;;;;;;5012993;28;20685;-65
2022/08/21 09:27:02;;;;;;;3.25;2.63;;;28.40;99.90;;;;;;5013610;28;20179;-66
2022/08/21 09:29:34;;;;;;;6.40;3.20;;;28.40;99.90;;;;;;5013513;28;20704;-66
2022/08/21 09:31:59;;;;;;;3.75;2.63;;;28.70;99.90;;;;;;5013021;28;20180;-65
2022/08/21 09:34:34;;;;;;;4.63;3.00;;;28.90;99.90;;;;;;5011784;28;20203;-67
2022/08/21 09:37:00;;;;;;;4.05;3.63;;;29.00;99.90;;;;;;5013800;28;20202;-66
2022/08/21 09:39:32;;;;;;;3.17;2.83;;;29.30;99.90;;;;;;5013680;28;20217;-66
2022/08/21 09:42:04;;;;;;;5.93;3.35;;;28.90;99.90;;;;;;5013766;28;20230;-66
2022/08/21 09:44:40;;;;;;;3.65;3.25;;;28.70;99.90;;;;;;5012515;28;20219;-66
2022/08/21 09:47:07;;;;;;;3.65;3.10;;;28.50;99.90;;;;;;5014092;28;20266;-65
2022/08/21 09:49:36;;;;;;;4.00;3.40;;;28.70;99.90;;;;;;5013381;28;20797;-66
2022/08/21 09:52:06;;;;;;;3.50;3.15;;;29.20;99.90;;;;;;5013579;28;20212;-66
2022/08/21 09:54:36;;;;;;;3.60;3.08;;;29.60;99.90;;;;;;5011245;28;20287;-66
2022/08/21 09:59:52;;;;;;;6.72;3.72;;;28.40;99.90;;;;;;5002598;28;20183;-66
2022/08/21 10:02:27;;;;;;;4.82;3.35;;;28.30;99.90;;;;;;5012810;28;20184;-66
2022/08/21 10:04:55;;;;;;;5.05;3.78;;;28.40;99.90;;;;;;5012969;28;20188;-66
2022/08/21 10:07:24;;;;;;;5.38;3.53;;;28.50;99.90;;;;;;5012880;28;20191;-66
2022/08/21 10:10:06;;;;;;;4.15;3.38;;;28.80;99.90;;;;;;5013252;28;20184;-65
2022/08/21 10:12:58;;;;;;;3.90;3.60;;;28.70;99.90;;;;;;5012230;28;20537;-65
2022/08/21 10:15:33;;;;;;;4.30;3.72;;;28.50;99.90;;;;;;5012826;28;20538;-67
2022/08/21 10:18:15;;;;;;;5.25;3.42;;;28.40;99.90;;;;;;5012802;28;20207;-66
2022/08/21 10:21:13;;;;;;;3.05;2.75;;;28.90;99.90;;;;;;5013085;28;20686;-64
2022/08/21 10:24:19;;;;;;;2.95;2.55;;;29.60;99.90;;;;;;5012372;28;20777;-63
2022/08/21 10:26:50;;;;;;;4.47;2.90;;;30.20;99.90;;;;;;4971677;28;20177;-65
2022/08/21 10:29:43;;;;;;;4.78;2.83;;;30.90;99.90;;;;;;4971775;28;20334;-64
2022/08/21 10:32:32;;;;;;;4.35;2.85;;;30.50;99.90;;;;;;4986536;28;20268;-64
2022/08/21 10:35:31;;;;;;;3.78;3.47;;;29.80;99.90;;;;;;4992995;28;20231;-64
2022/08/21 10:38:16;;;;;;;3.17;2.88;;;29.00;99.90;;;;;;5011146;28;20207;-64
2022/08/21 10:40:55;;;;;;;4.30;3.88;;;28.70;99.90;;;;;;5011617;28;20176;-65
2022/08/21 10:43:47;;;;;;;5.15;3.33;;;28.70;99.90;;;;;;5019893;23;20557;-64
2022/08/21 10:46:21;;;;;;;4.45;3.10;;;29.10;99.90;;;;;;5051959;28;20194;-64
2022/08/21 10:48:56;;;;;;;3.42;3.13;;;29.20;99.90;;;;;;5052037;28;20856;-64
2022/08/21 10:52:15;;;;;;;5.13;3.30;;;29.70;99.90;;;;;;5052428;28;20653;-64
2022/08/21 10:55:00;;;;;;;4.22;3.75;;;30.30;99.90;;;;;;4990210;28;20570;-64
2022/08/21 10:57:34;;;;;;;4.93;3.15;;;30.60;99.90;;;;;;5032064;28;20272;-64
2022/08/21 11:00:08;;;;;;;4.38;3.22;;;31.00;99.90;;;;;;5032128;28;20171;-64
2022/08/21 11:02:59;;;;;;;3.35;2.42;;;31.30;99.90;;;;;;5031233;28;20195;-64
2022/08/21 11:05:34;;;;;;;3.85;2.60;;;31.60;99.90;;;;;;5027511;28;20204;-64
2022/08/21 11:08:11;;;;;;;4.53;2.63;;;31.60;99.90;;;;;;5032032;28;20578;-64
2022/08/21 11:10:44;;;;;;;6.10;3.88;;;30.80;99.90;;;;;;5031252;28;20171;-64
2022/08/21 11:13:25;;;;;;;3.95;2.95;;;30.30;99.90;;;;;;5031979;28;20204;-64
2022/08/21 11:16:00;;;;;;;3.22;2.92;;;29.80;99.90;;;;;;5031774;28;20174;-64
2022/08/21 11:18:37;;;;;;;3.88;3.42;;;29.80;99.90;;;;;;5031287;28;20206;-63
2022/08/21 11:21:08;;;;;;;3.80;3.10;;;29.30;99.90;;;;;;5032154;28;20207;-63
2022/08/21 11:23:41;;;;;;;3.95;3.20;;;29.50;99.90;;;;;;5031273;28;20207;-63
2022/08/21 11:26:24;;;;;;;3.10;2.80;;;29.90;99.90;;;;;;5031820;28;20174;-64
2022/08/21 11:29:25;;;;;;;3.25;2.80;;;30.60;99.90;;;;;;5031807;28;20163;-63
2022/08/21 11:32:10;;;;;;;9.55;2.90;;;30.90;99.90;;;;;;5026576;28;20187;-63
2022/08/21 11:34:47;;;;;;;4.78;3.28;;;30.70;99.90;;;;;;5031141;28;20195;-63
2022/08/21 11:37:28;;;;;;;5.03;3.10;;;30.80;99.90;;;;;;5031834;28;20213;-64
2022/08/21 11:40:05;;;;;;;4.18;2.65;;;31.00;99.90;;;;;;5030703;28;20640;-63
2022/08/21 11:42:41;;;;;;;3.60;2.67;;;31.60;99.90;;;;;;5031472;28;20167;-63
2022/08/21 11:45:39;;;;;;;6.18;2.85;;;31.70;99.90;;;;;;5031384;28;20588;-63
2022/08/21 11:49:03;;;;;;;4.22;3.05;;;32.00;99.90;;;;;;5031449;28;20242;-64
2022/08/21 11:51:44;;;;;;;4.28;2.80;;;31.80;99.90;;;;;;4965503;28;20317;-63
2022/08/21 11:54:31;;;;;;;3.45;3.08;;;31.30;99.90;;;;;;4970070;28;20208;-64
2022/08/21 11:57:05;;;;;;;4.28;2.80;;;31.10;99.90;;;;;;5013718;28;20591;-64
2022/08/21 11:59:40;;;;;;;3.70;2.47;;;30.80;99.90;;;;;;5031399;28;20214;-64
2022/08/21 12:02:13;;;;;;;3.00;2.80;;;30.70;99.90;;;;;;5030271;28;20170;-64
2022/08/21 12:04:49;;;;;;;3.38;2.80;;;30.90;99.90;;;;;;5031204;28;20206;-63
2022/08/21 12:07:28;;;;;;;3.97;3.55;;;30.60;99.90;;;;;;5031391;28;20190;-64
2022/08/21 12:09:56;;;;;;;3.67;3.03;;;30.30;99.90;;;;;;5031229;28;20183;-63
2022/08/21 12:12:23;;;;;;;3.80;3.17;;;30.30;99.90;;;;;;5031240;28;20179;-64
2022/08/21 12:15:02;;;;;;;3.30;3.00;;;30.40;99.90;;;;;;5030936;28;20249;-64
2022/08/21 12:17:36;;;;;;;2.55;2.45;;;31.00;99.50;;;;;;5031117;28;20349;-63
2022/08/21 12:20:26;;;;;;;2.67;2.47;;;31.10;99.40;;;;;;5031234;28;20171;-64
2022/08/21 12:23:17;;;;;;;5.88;3.03;;;31.40;98.20;;;;;;5030026;28;20183;-63
2022/08/21 12:25:45;;;;;;;5.55;3.03;;;31.40;98.30;;;;;;5028153;28;20537;-63
2022/08/21 12:28:22;;;;;;;3.80;2.60;;;31.30;97.70;;;;;;5031176;28;20676;-63
2022/08/21 12:30:49;;;;;;;3.67;2.97;;;31.50;99.90;;;;;;5035073;28;20246;-64
2022/08/21 12:33:36;;;;;;;5.75;3.00;;;32.10;98.40;;;;;;5034752;28;20183;-63
2022/08/21 12:36:15;;;;;;;4.82;4.20;;;32.20;97.30;;;;;;5034729;28;20262;-64
2022/08/21 12:38:58;;;;;;;7.22;4.03;;;32.40;97.20;;;;;;5034870;28;20257;-64
2022/08/21 12:41:59;;;;;;;3.75;2.45;;;32.10;96.60;;;;;;5034987;28;20203;-64
2022/08/21 12:44:39;;;;;;;5.03;2.80;;;31.20;97.20;;;;;;5030191;28;20315;-64
2022/08/21 12:47:34;;;;;;;4.30;2.83;;;31.50;98.00;;;;;;5034673;28;20237;-63
2022/08/21 12:50:05;;;;;;;4.47;3.50;;;31.80;96.70;;;;;;5034467;28;20250;-64
2022/08/21 12:52:48;;;;;;;4.22;3.10;;;31.10;96.20;;;;;;5034547;28;20175;-63
2022/08/21 12:55:24;;;;;;;4.90;3.38;;;30.50;95.80;;;;;;5034232;28;20249;-63
2022/08/21 12:57:50;;;;;;;3.95;2.72;;;30.60;97.90;;;;;;5034280;28;20245;-63